Billinge, United Kingdom
Current Conditions -  °F | °C
As of 11:20 PM on Wednesday 22 Oct 2014 (Local Time) from EGGP Reporting Station
Few Clouds Few Clouds  
Wind Chill: 54°   Ceiling: Unl
Heat Index: 54°   Visibility: 6mi
Dew Point: 46°   Wind: 8mph
Humidity: 77%   Direction: 230°SW
Pressure: 30.09"   Gusts: NA
Location:  53.5°N, 2.71°W
Report Text: EGGP 222220Z 23007KT 200V260 9999 FEW028 12/08 Q1019
Loading
Personal Weather Stations






























Interactive Weather Map New forecast layout! Learn more

10-Day Weather Forecast

Advertisements
Track Severe Weather on mobile